Time;durP1;ratioP1;P1;durP2;ratioP2;P2;SDS_P1;SDS_P2;PMS_P1;PMS_P2;Temp;Humidity;BMP_temperature;BMP_pressure;BME280_temperature;BME280_humidity;BME280_pressure;Samples;Min_cycle;Max_cycle;Signal;HPM_P1;HPM_P2
2021/08/21 00:03:04;;;;;;;12.03;8.67;;;;;;;15.74;72.21;98804.78;529288;1092;101627;-41
2021/08/21 00:13:12;;;;;;;12.47;8.40;;;;;;;15.72;72.27;98810.38;529240;1092;100958;-40
2021/08/21 00:23:20;;;;;;;11.70;9.67;;;;;;;15.85;72.37;98815.25;529219;1092;101051;-41
2021/08/21 00:33:27;;;;;;;13.43;9.07;;;;;;;15.67;72.34;98810.34;529159;1093;101027;-40
2021/08/21 00:43:36;;;;;;;12.93;9.30;;;;;;;15.21;72.28;98818.00;529115;1092;101216;-40
2021/08/21 00:53:44;;;;;;;8.40;6.83;;;;;;;15.12;72.51;98818.70;529099;1092;101628;-40
2021/08/21 01:03:52;;;;;;;10.93;7.53;;;;;;;15.18;73.08;98815.86;529077;1093;101308;-41
2021/08/21 01:14:00;;;;;;;12.17;6.70;;;;;;;14.97;72.68;98811.41;529133;1093;100979;-40
2021/08/21 01:24:09;;;;;;;9.37;5.93;;;;;;;14.83;72.85;98816.34;529020;1092;101115;-40
2021/08/21 01:34:17;;;;;;;11.10;6.60;;;;;;;14.77;72.93;98808.57;529030;1092;100940;-40
2021/08/21 01:44:50;;;;;;;10.43;8.03;;;;;;;14.37;73.14;98809.73;529368;1093;103502;-40
2021/08/21 01:54:58;;;;;;;10.28;7.83;;;;;;;14.21;73.87;98805.31;529675;1092;101099;-40
2021/08/21 02:05:07;;;;;;;10.07;7.73;;;;;;;14.09;73.77;98805.42;529733;1093;100797;-40
2021/08/21 02:15:17;;;;;;;11.93;6.80;;;;;;;14.05;73.70;98807.77;528514;1092;101413;-40
2021/08/21 02:25:25;;;;;;;10.73;8.20;;;;;;;14.00;73.97;98804.26;529731;1092;100711;-40
2021/08/21 02:35:33;;;;;;;10.70;7.30;;;;;;;13.96;74.06;98811.09;529666;1092;101573;-40
2021/08/21 02:45:42;;;;;;;9.48;8.48;;;;;;;14.00;74.37;98821.02;529750;1093;101021;-40
2021/08/21 02:55:49;;;;;;;9.87;7.23;;;;;;;14.07;74.40;98834.92;529693;1093;101028;-40
2021/08/21 03:05:58;;;;;;;11.13;9.23;;;;;;;14.05;74.43;98837.02;529711;1091;100996;-40
2021/08/21 03:16:06;;;;;;;9.70;6.90;;;;;;;13.88;74.13;98830.95;529721;1092;100973;-41
2021/08/21 03:26:12;;;;;;;;;;;;;;;13.81;74.47;98833.78;529712;1092;101464;-41
2021/08/21 03:36:20;;;;;;;10.10;7.67;;;;;;;13.76;74.57;98841.70;529743;1092;101328;-41
2021/08/21 03:46:28;;;;;;;9.97;7.60;;;;;;;13.82;74.63;98848.69;529765;1093;101009;-41
2021/08/21 03:56:36;;;;;;;11.20;7.40;;;;;;;13.93;74.82;98860.25;529734;1093;100985;-40
2021/08/21 04:06:44;;;;;;;12.17;8.47;;;;;;;13.96;74.85;98862.44;529740;1092;101105;-41
2021/08/21 04:16:52;;;;;;;10.98;8.83;;;;;;;14.13;74.95;98873.00;529662;1092;102002;-42
2021/08/21 04:26:59;;;;;;;9.97;8.43;;;;;;;14.22;74.98;98873.41;529753;1092;101474;-40
2021/08/21 04:37:08;;;;;;;13.93;8.68;;;;;;;14.70;75.13;98880.64;529780;1092;100846;-41
2021/08/21 04:47:15;;;;;;;8.35;7.10;;;;;;;15.38;74.82;98883.65;529649;1092;101594;-41
2021/08/21 04:57:23;;;;;;;9.73;8.10;;;;;;;16.54;74.89;98881.67;529780;1093;101015;-41
2021/08/21 05:07:31;;;;;;;12.90;7.50;;;;;;;18.25;74.11;98886.56;529713;1093;101608;-41
2021/08/21 05:17:39;;;;;;;9.17;7.73;;;;;;;19.38;73.31;98894.77;529733;1093;101241;-41
2021/08/21 05:27:46;;;;;;;9.60;7.45;;;;;;;20.27;71.97;98908.70;529734;1093;100947;-40
2021/08/21 05:37:54;;;;;;;10.63;8.37;;;;;;;20.74;71.36;98918.63;529687;1093;100996;-40
2021/08/21 05:48:02;;;;;;;12.63;8.43;;;;;;;21.74;70.86;98923.59;529743;1092;100975;-41
2021/08/21 05:58:08;;;;;;;;;;;;;;;22.58;69.50;98939.56;529780;1091;101552;-41
2021/08/21 06:08:16;;;;;;;9.75;8.85;;;;;;;23.14;68.63;98946.47;529730;1091;101120;-41
2021/08/21 06:18:24;;;;;;;10.97;9.87;;;;;;;23.57;67.61;98941.45;529777;1093;101435;-41
2021/08/21 06:28:32;;;;;;;10.17;9.07;;;;;;;23.88;66.99;98954.98;529709;1093;101158;-42
2021/08/21 06:38:40;;;;;;;12.47;10.60;;;;;;;24.14;65.76;98960.55;529689;1093;101205;-42
2021/08/21 06:48:47;;;;;;;15.63;9.73;;;;;;;24.40;64.61;98957.19;529627;1091;102469;-42
2021/08/21 06:58:55;;;;;;;11.30;9.40;;;;;;;24.63;63.79;98958.69;529713;1092;101135;-42
2021/08/21 07:09:03;;;;;;;10.43;8.80;;;;;;;24.80;61.99;98956.01;529689;1091;101111;-42
2021/08/21 07:19:11;;;;;;;10.33;9.23;;;;;;;24.66;60.94;98965.38;529669;1092;100936;-42
2021/08/21 07:29:19;;;;;;;11.70;9.73;;;;;;;24.88;60.31;98981.50;529724;1093;101003;-42
2021/08/21 07:39:27;;;;;;;10.17;8.50;;;;;;;23.71;59.78;98992.69;528560;1092;101623;-42
2021/08/21 07:50:00;;;;;;;8.53;7.53;;;;;;;23.97;59.67;98986.66;529722;1091;100968;-42
2021/08/21 08:00:10;;;;;;;9.30;7.47;;;;;;;24.29;58.85;99002.59;529701;1092;101107;-42
2021/08/21 08:10:18;;;;;;;6.33;5.70;;;;;;;24.00;57.30;99005.74;529742;1092;101190;-41
2021/08/21 08:20:26;;;;;;;7.80;5.47;;;;;;;24.31;56.36;99003.08;529672;1093;101067;-42
2021/08/21 08:30:34;;;;;;;7.50;4.83;;;;;;;23.77;55.92;99015.76;529637;1092;101644;-41
2021/08/21 08:40:42;;;;;;;5.53;3.30;;;;;;;24.14;55.64;99016.48;529728;1093;100974;-42
2021/08/21 08:50:48;;;;;;;7.20;5.17;;;;;;;24.36;54.27;99012.94;529753;1093;100982;-41
2021/08/21 09:00:56;;;;;;;5.00;4.37;;;;;;;24.46;54.11;99013.48;529599;1093;100986;-42
2021/08/21 09:11:21;;;;;;;5.83;4.60;;;;;;;24.43;53.19;99021.42;529742;1093;101129;-42
2021/08/21 09:21:29;;;;;;;4.80;4.40;;;;;;;23.53;52.64;99023.32;529659;1092;101594;-41
2021/08/21 09:31:38;;;;;;;5.13;4.03;;;;;;;23.71;52.74;99033.19;529720;1093;101191;-41
2021/08/21 09:42:00;;;;;;;7.37;3.63;;;;;;;24.02;53.11;99035.94;529701;1093;101033;-42
2021/08/21 10:02:18;;;;;;;4.27;3.60;;;;;;;24.76;53.30;99022.66;529733;1092;101004;-42
2021/08/21 10:12:26;;;;;;;7.17;3.60;;;;;;;25.01;50.24;99026.58;529656;1093;101858;-42
2021/08/21 10:22:36;;;;;;;4.03;3.67;;;;;;;24.46;50.64;99028.91;528562;1092;101156;-43
2021/08/21 10:32:46;;;;;;;8.30;3.43;;;;;;;24.73;50.61;99025.20;529705;1093;101045;-42
2021/08/21 10:42:55;;;;;;;3.17;2.87;;;;;;;24.45;49.87;99028.11;529664;1093;100973;-42
2021/08/21 10:53:05;;;;;;;5.23;3.10;;;;;;;24.79;50.23;99027.44;529033;1093;100987;-42
2021/08/21 11:03:14;;;;;;;103.60;9.13;;;;;;;24.03;49.71;99034.04;529687;1093;101654;-42
2021/08/21 11:13:48;;;;;;;6.73;3.07;;;;;;;24.00;50.57;99013.05;529674;1093;101196;-42
2021/08/21 11:23:56;;;;;;;3.50;2.90;;;;;;;24.83;49.84;99021.39;529717;1093;101056;-42
2021/08/21 11:34:06;;;;;;;2.70;2.50;;;;;;;25.21;49.35;99013.56;529696;1092;101045;-44
2021/08/21 11:44:14;;;;;;;3.30;3.00;;;;;;;24.80;49.04;99009.30;529745;1092;100753;-42
2021/08/21 11:54:22;;;;;;;4.33;3.17;;;;;;;24.31;49.08;99013.88;529709;1092;101888;-42
2021/08/21 12:04:30;;;;;;;5.80;4.17;;;;;;;24.51;49.77;99007.14;529705;1092;101055;-42
2021/08/21 12:14:38;;;;;;;3.70;3.40;;;;;;;25.15;49.49;99009.42;529727;1093;100925;-42
2021/08/21 12:24:55;;;;;;;3.60;3.30;;;;;;;24.69;49.05;99006.10;529630;1093;100737;-42
2021/08/21 12:35:18;;;;;;;4.10;3.70;;;;;;;25.08;48.95;98988.25;529714;1092;101234;-42
2021/08/21 12:45:27;;;;;;;4.67;2.83;;;;;;;25.46;48.62;98993.84;529211;1092;101608;-43
2021/08/21 12:55:35;;;;;;;3.20;2.90;;;;;;;25.54;47.38;98981.40;529684;1093;101257;-42
2021/08/21 13:05:43;;;;;;;3.00;2.70;;;;;;;25.84;47.15;98977.75;529239;1093;101118;-42
2021/08/21 13:15:52;;;;;;;3.37;3.07;;;;;;;25.86;46.19;98982.84;529712;1093;100887;-42
2021/08/21 13:36:07;;;;;;;3.13;2.85;;;;;;;25.30;45.88;98968.34;529728;1092;101603;-42
2021/08/21 13:46:14;;;;;;;3.47;3.17;;;;;;;24.64;46.50;98962.98;529757;1092;101020;-43
2021/08/21 13:56:46;;;;;;;4.17;3.40;;;;;;;24.35;47.12;98960.80;528596;1092;101231;-42
2021/08/21 14:06:54;;;;;;;3.93;3.63;;;;;;;23.98;47.27;98959.34;529631;1093;101025;-41
2021/08/21 14:17:02;;;;;;;5.07;3.70;;;;;;;23.60;48.09;98960.83;529741;1092;100984;-41
2021/08/21 14:27:10;;;;;;;7.00;5.23;;;;;;;23.60;48.75;98969.73;529723;1092;101648;-42
2021/08/21 14:37:18;;;;;;;4.67;3.63;;;;;;;23.61;49.13;98957.03;529709;1092;100980;-42
2021/08/21 14:47:26;;;;;;;6.80;3.93;;;;;;;23.60;49.26;98955.43;529697;1092;101047;-41
2021/08/21 14:57:34;;;;;;;4.57;3.87;;;;;;;23.79;49.22;98953.34;529646;1093;101066;-41
2021/08/21 15:07:41;;;;;;;6.53;4.17;;;;;;;23.65;49.23;98955.30;529737;1093;101061;-42
2021/08/21 15:17:50;;;;;;;6.53;3.87;;;;;;;23.67;48.97;98942.32;529710;1093;101567;-41
2021/08/21 15:27:58;;;;;;;9.40;4.10;;;;;;;23.45;49.27;98945.79;529706;1093;100987;-42
2021/08/21 15:38:07;;;;;;;4.23;3.20;;;;;;;23.35;49.42;98935.22;529738;1093;100735;-42
2021/08/21 15:48:14;;;;;;;4.40;4.00;;;;;;;23.35;49.50;98937.92;529691;1092;101266;-41
2021/08/21 15:58:23;;;;;;;10.23;4.53;;;;;;;23.42;49.51;98927.48;529662;1093;100982;-41
2021/08/21 16:08:30;;;;;;;5.80;4.27;;;;;;;22.94;49.74;98922.66;529687;1092;101922;-41
2021/08/21 16:18:38;;;;;;;4.83;4.43;;;;;;;22.59;50.00;98930.38;529676;1092;100974;-41
2021/08/21 16:28:43;;;;;;;;;;;;;;;22.16;50.76;98932.57;529740;1092;100931;-41
2021/08/21 16:38:51;;;;;;;5.00;4.60;;;;;;;21.81;51.33;98922.42;528690;1093;101070;-42
2021/08/21 16:48:58;;;;;;;8.05;4.88;;;;;;;21.66;52.51;98929.66;529717;1092;100977;-42
2021/08/21 16:59:07;;;;;;;7.67;4.33;;;;;;;21.56;52.97;98919.08;529688;1092;101919;-41
2021/08/21 17:09:13;;;;;;;;;;;;;;;21.29;53.88;98927.02;529804;1093;101415;-41
2021/08/21 17:19:26;;;;;;;7.33;4.93;;;;;;;20.87;54.49;98925.20;529729;1093;100956;-41
2021/08/21 17:29:34;;;;;;;9.67;5.57;;;;;;;20.49;55.26;98933.19;529718;1092;101025;-41
2021/08/21 17:39:42;;;;;;;5.53;4.90;;;;;;;20.21;55.85;98934.81;529746;1092;101110;-41
2021/08/21 17:49:50;;;;;;;10.03;6.70;;;;;;;19.92;56.73;98937.53;529665;1093;101728;-41
2021/08/21 17:59:57;;;;;;;13.10;10.13;;;;;;;19.62;57.51;98947.43;529726;1093;101009;-42
2021/08/21 18:10:06;;;;;;;26.95;17.00;;;;;;;19.33;58.58;98957.28;529703;1093;101062;-42
2021/08/21 18:20:15;;;;;;;21.33;15.50;;;;;;;19.09;59.01;98975.92;529656;1093;101241;-43
2021/08/21 18:30:22;;;;;;;20.73;14.37;;;;;;;18.85;59.96;98980.33;529731;1093;101222;-43
2021/08/21 18:40:30;;;;;;;25.65;15.25;;;;;;;18.69;60.78;98987.63;529659;1092;101677;-43
2021/08/21 18:50:38;;;;;;;25.20;16.30;;;;;;;18.27;60.70;98991.48;529787;1092;100946;-42
2021/08/21 19:00:46;;;;;;;23.45;16.58;;;;;;;17.92;61.06;98983.48;529703;1093;101066;-42
2021/08/21 19:10:54;;;;;;;35.45;24.68;;;;;;;17.59;61.96;98987.47;529698;1093;101063;-42
2021/08/21 19:21:02;;;;;;;44.65;31.83;;;;;;;17.42;62.17;98990.38;529769;1092;100987;-42
2021/08/21 19:31:09;;;;;;;41.95;29.13;;;;;;;17.31;63.30;98986.91;529679;1092;101741;-42
2021/08/21 19:41:16;;;;;;;37.10;28.67;;;;;;;17.18;63.60;98998.89;529739;1093;101003;-42
2021/08/21 19:51:24;;;;;;;41.63;28.58;;;;;;;17.00;63.70;98988.67;529748;1093;101019;-42
2021/08/21 20:01:56;;;;;;;32.87;22.47;;;;;;;16.82;64.37;98987.30;529693;1093;101030;-42
2021/08/21 20:12:04;;;;;;;42.57;23.37;;;;;;;16.78;64.62;98993.41;529730;1093;100960;-42
2021/08/21 20:22:11;;;;;;;24.48;19.08;;;;;;;16.60;65.25;98996.52;529700;1092;101597;-42
2021/08/21 20:32:19;;;;;;;27.77;19.03;;;;;;;16.15;65.33;98995.98;529718;1093;101011;-42
2021/08/21 20:42:27;;;;;;;26.53;18.80;;;;;;;15.84;65.64;98994.94;529696;1092;100994;-42
2021/08/21 20:52:34;;;;;;;28.00;21.03;;;;;;;15.74;65.94;98992.20;529134;1093;101407;-41
2021/08/21 21:02:42;;;;;;;;;;;;;;;15.78;67.07;98982.63;529794;1093;100937;-41
2021/08/21 21:12:49;;;;;;;29.47;18.27;;;;;;;15.77;66.87;98990.89;529617;1092;101616;-42
2021/08/21 21:23:01;;;;;;;30.77;21.23;;;;;;;15.53;67.23;98985.05;529708;1093;100999;-42
2021/08/21 21:33:09;;;;;;;33.80;23.07;;;;;;;15.60;67.64;98980.34;528594;1093;101025;-42
2021/08/21 21:43:17;;;;;;;32.93;21.33;;;;;;;15.61;67.88;98981.95;529681;1093;101002;-41
2021/08/21 21:53:26;;;;;;;34.75;23.33;;;;;;;15.79;67.99;98983.44;529739;1092;101010;-42
2021/08/21 22:03:33;;;;;;;36.40;24.73;;;;;;;15.69;68.36;98983.37;529624;1093;101630;-41
2021/08/21 22:13:42;;;;;;;33.87;24.43;;;;;;;15.29;68.25;98982.70;529721;1092;101223;-42
2021/08/21 22:23:50;;;;;;;34.57;23.63;;;;;;;15.17;68.44;98995.38;529709;1092;101142;-41
2021/08/21 22:33:58;;;;;;;26.67;19.73;;;;;;;15.13;68.59;98974.80;529715;1093;101033;-44
2021/08/21 22:44:06;;;;;;;26.55;18.68;;;;;;;15.11;69.13;98977.71;529733;1093;101040;-41
2021/08/21 22:54:12;;;;;;;23.60;17.23;;;;;;;15.22;69.38;98974.11;529607;1093;101608;-41
2021/08/21 23:04:20;;;;;;;24.57;17.70;;;;;;;15.57;70.06;98972.83;529747;1092;101255;-41
2021/08/21 23:14:29;;;;;;;24.00;16.08;;;;;;;15.84;70.00;98965.61;529748;1093;100970;-41
2021/08/21 23:24:36;;;;;;;23.00;17.30;;;;;;;16.09;70.36;98956.17;529697;1093;101186;-42
2021/08/21 23:34:45;;;;;;;28.67;20.17;;;;;;;16.04;70.56;98945.48;529710;1092;100962;-43
2021/08/21 23:44:53;;;;;;;25.10;18.40;;;;;;;16.09;70.33;98940.17;529665;1093;101898;-42
2021/08/21 23:55:01;;;;;;;24.40;16.43;;;;;;;16.17;70.71;98940.50;529697;1092;101040;-42
